createdAt,value
2022-08-27T00:02:02.626Z,6.05
2022-08-27T00:05:07.276Z,6.57
2022-08-27T00:08:12.651Z,5.40
2022-08-27T00:11:17.529Z,5.50
2022-08-27T00:14:20.894Z,6.15
2022-08-27T00:17:25.775Z,6.13
2022-08-27T00:20:29.153Z,5.60
2022-08-27T00:23:32.495Z,5.85
2022-08-27T00:26:39.099Z,6.68
2022-08-27T00:29:44.788Z,6.35
2022-08-27T00:32:50.062Z,6.65
2022-08-27T00:35:54.345Z,6.05
2022-08-27T00:38:57.678Z,6.25
2022-08-27T00:42:01.429Z,6.13
2022-08-27T00:45:05.635Z,6.00
2022-08-27T00:48:12.642Z,5.63
2022-08-27T00:51:16.157Z,6.22
2022-08-27T00:54:19.979Z,6.68
2022-08-27T00:57:23.545Z,5.90
2022-08-27T01:00:27.152Z,6.03
2022-08-27T01:03:31.998Z,6.07
2022-08-27T01:06:37.886Z,6.43
2022-08-27T01:09:43.005Z,8.13
2022-08-27T01:12:53.640Z,6.63
2022-08-27T01:15:59.186Z,6.93
2022-08-27T01:19:07.574Z,7.57
2022-08-27T01:22:23.102Z,7.30
2022-08-27T01:25:30.244Z,7.18
2022-08-27T01:28:37.626Z,6.25
2022-08-27T01:31:41.222Z,7.10
2022-08-27T01:34:44.681Z,5.68
2022-08-27T01:37:52.455Z,6.85
2022-08-27T01:40:57.267Z,5.72
2022-08-27T01:44:01.409Z,5.88
2022-08-27T01:47:04.930Z,5.78
2022-08-27T01:50:15.032Z,6.03
2022-08-27T01:53:20.986Z,6.05
2022-08-27T01:56:26.065Z,6.18
2022-08-27T01:59:39.430Z,6.18
2022-08-27T02:02:44.632Z,6.40
2022-08-27T02:05:49.170Z,6.68
2022-08-27T02:08:52.479Z,6.07
2022-08-27T02:11:57.647Z,5.78
2022-08-27T02:15:01.710Z,6.22
2022-08-27T02:18:07.082Z,6.95
2022-08-27T02:21:10.655Z,6.85
2022-08-27T02:24:13.950Z,6.40
2022-08-27T02:27:18.770Z,5.72
2022-08-27T02:30:24.890Z,6.40
2022-08-27T02:33:28.183Z,5.95
2022-08-27T02:36:31.679Z,6.13
2022-08-27T02:39:35.283Z,5.53
2022-08-27T02:42:42.498Z,5.80
2022-08-27T02:45:46.231Z,5.57
2022-08-27T02:48:49.768Z,6.28
2022-08-27T02:51:55.133Z,6.80
2022-08-27T02:54:58.950Z,6.60
2022-08-27T02:58:04.735Z,6.65
2022-08-27T03:01:11.142Z,6.55
2022-08-27T03:04:15.217Z,6.60
2022-08-27T03:07:19.163Z,6.43
2022-08-27T03:10:23.655Z,6.78
2022-08-27T03:13:28.939Z,5.65
2022-08-27T03:16:35.017Z,6.05
2022-08-27T03:19:37.362Z,6.68
2022-08-27T03:22:42.287Z,6.63
2022-08-27T03:25:47.726Z,6.90
2022-08-27T03:28:53.285Z,7.45
2022-08-27T03:31:56.611Z,7.15
2022-08-27T03:35:00.265Z,7.40
2022-08-27T03:38:03.686Z,7.55
2022-08-27T03:41:08.039Z,7.13
2022-08-27T03:44:16.727Z,6.70
2022-08-27T03:47:25.320Z,7.03
2022-08-27T03:50:29.031Z,7.15
2022-08-27T03:53:32.464Z,7.20
2022-08-27T03:56:39.426Z,6.00
2022-08-27T03:59:44.195Z,6.30
2022-08-27T04:02:47.576Z,6.55
2022-08-27T04:05:54.450Z,7.50
2022-08-27T04:08:57.898Z,6.10
2022-08-27T04:12:01.198Z,6.18
2022-08-27T04:15:07.849Z,6.28
2022-08-27T04:18:12.173Z,5.78
2022-08-27T04:21:16.686Z,5.85
2022-08-27T04:24:20.050Z,5.93
2022-08-27T04:27:25.682Z,5.93
2022-08-27T04:30:31.517Z,6.05
2022-08-27T04:33:35.058Z,6.43
2022-08-27T04:36:38.396Z,6.03
2022-08-27T04:39:41.673Z,7.25
2022-08-27T04:42:47.484Z,5.82
2022-08-27T04:45:52.201Z,5.82
2022-08-27T04:48:57.835Z,5.75
2022-08-27T04:52:01.215Z,6.05
2022-08-27T04:55:04.720Z,5.82
2022-08-27T04:58:08.330Z,5.57
2022-08-27T05:01:17.381Z,5.97
2022-08-27T05:04:20.739Z,5.90
2022-08-27T05:07:24.049Z,6.15
2022-08-27T05:10:27.443Z,6.03
2022-08-27T05:13:31.107Z,6.40
2022-08-27T05:16:37.054Z,5.72
2022-08-27T05:19:40.441Z,5.47
2022-08-27T05:22:43.715Z,5.70
2022-08-27T05:25:49.120Z,6.25
2022-08-27T05:28:52.761Z,6.10
2022-08-27T05:31:57.506Z,5.72
2022-08-27T05:35:00.849Z,5.70
2022-08-27T05:38:04.146Z,5.82
2022-08-27T05:41:10.800Z,6.70
2022-08-27T05:47:44.959Z,6.15
2022-08-27T05:50:48.439Z,6.28
2022-08-27T05:53:51.889Z,6.22
2022-08-27T05:56:55.178Z,6.32
2022-08-27T06:00:16.079Z,5.82
2022-08-27T06:03:20.876Z,6.45
2022-08-27T06:06:24.376Z,7.00
2022-08-27T06:09:30.056Z,6.88
2022-08-27T06:12:33.400Z,6.65
2022-08-27T06:15:36.777Z,7.13
2022-08-27T06:18:43.369Z,6.50
2022-08-27T06:22:00.831Z,6.32
2022-08-27T06:25:10.752Z,6.28
2022-08-27T06:28:14.130Z,6.10
2022-08-27T06:31:20.115Z,6.53
2022-08-27T06:34:24.859Z,6.20
2022-08-27T06:37:29.329Z,5.80
2022-08-27T06:40:32.733Z,6.05
2022-08-27T06:43:37.860Z,5.78
2022-08-27T06:46:41.700Z,6.57
2022-08-27T06:49:46.626Z,5.75
2022-08-27T06:52:49.923Z,5.57
2022-08-27T06:55:53.603Z,5.68
2022-08-27T06:58:58.800Z,6.30
2022-08-27T07:02:02.134Z,7.07
2022-08-27T07:05:08.281Z,6.70
2022-08-27T07:08:12.032Z,7.03
2022-08-27T07:11:16.255Z,6.25
2022-08-27T07:14:19.627Z,5.13
2022-08-27T07:17:22.988Z,5.45
2022-08-27T07:20:27.731Z,5.70
2022-08-27T07:23:32.013Z,5.85
2022-08-27T07:26:38.634Z,5.38
2022-08-27T07:29:41.925Z,5.38
2022-08-27T07:32:46.171Z,5.40
2022-08-27T07:35:52.165Z,5.70
2022-08-27T07:38:59.303Z,4.97
2022-08-27T07:42:22.532Z,4.93
2022-08-27T07:45:26.575Z,5.18
2022-08-27T07:48:31.041Z,6.07
2022-08-27T07:51:37.829Z,4.80
2022-08-27T07:54:41.581Z,5.07
2022-08-27T07:57:48.062Z,4.90
2022-08-27T08:00:51.414Z,4.63
2022-08-27T08:03:54.864Z,5.30
2022-08-27T08:06:59.673Z,5.53
2022-08-27T08:10:03.419Z,5.30
2022-08-27T08:13:07.165Z,5.13
2022-08-27T08:16:10.609Z,4.68
2022-08-27T08:19:13.951Z,5.65
2022-08-27T08:22:18.751Z,4.25
2022-08-27T08:25:22.058Z,4.65
2022-08-27T08:28:25.789Z,4.82
2022-08-27T08:31:29.087Z,4.45
2022-08-27T08:34:32.381Z,4.78
2022-08-27T08:37:38.022Z,4.22
2022-08-27T08:40:44.163Z,4.60
2022-08-27T08:43:51.639Z,4.55
2022-08-27T08:46:59.780Z,4.28
2022-08-27T08:50:06.254Z,4.65
2022-08-27T08:53:21.061Z,5.32
2022-08-27T08:56:29.739Z,4.85
2022-08-27T08:59:37.207Z,4.68
2022-08-27T09:02:40.779Z,4.72
2022-08-27T09:05:54.904Z,4.85
2022-08-27T09:09:05.275Z,4.63
2022-08-27T09:12:15.375Z,4.32
2022-08-27T09:15:23.249Z,5.03
2022-08-27T09:18:28.127Z,5.32
2022-08-27T09:21:42.117Z,4.10
2022-08-27T09:24:56.863Z,3.90
2022-08-27T09:28:02.905Z,3.88
2022-08-27T09:31:08.981Z,4.30
2022-08-27T09:34:14.642Z,4.25
2022-08-27T09:37:21.726Z,4.82
2022-08-27T09:40:32.232Z,3.80
2022-08-27T09:43:37.026Z,4.18
2022-08-27T09:46:40.804Z,3.88
2022-08-27T09:49:44.335Z,4.15
2022-08-27T09:52:54.135Z,3.67
2022-08-27T09:56:00.625Z,4.35
2022-08-27T09:59:07.075Z,4.40
2022-08-27T10:02:16.929Z,3.85
2022-08-27T10:05:29.194Z,4.40
2022-08-27T10:08:42.337Z,3.58
2022-08-27T10:11:54.472Z,5.32
2022-08-27T10:15:00.919Z,4.32
2022-08-27T10:18:11.355Z,4.53
2022-08-27T10:21:25.558Z,3.90
2022-08-27T10:24:39.967Z,3.72
2022-08-27T10:27:54.846Z,4.03
2022-08-27T10:31:18.027Z,3.63
2022-08-27T10:34:37.424Z,4.30
2022-08-27T10:37:52.286Z,4.13
2022-08-27T10:41:03.586Z,4.15
2022-08-27T10:44:30.107Z,4.65
2022-08-27T10:47:53.816Z,4.50
2022-08-27T10:51:06.869Z,3.75
2022-08-27T10:54:19.012Z,3.80
2022-08-27T10:57:54.234Z,3.88
2022-08-27T11:01:07.056Z,4.00
2022-08-27T11:04:14.526Z,3.83
2022-08-27T11:07:24.817Z,3.75
2022-08-27T11:10:30.988Z,3.97
2022-08-27T11:13:38.558Z,4.10
2022-08-27T11:16:48.409Z,4.10
2022-08-27T11:19:58.357Z,4.10
2022-08-27T11:23:07.148Z,4.00
2022-08-27T11:26:13.723Z,3.85
2022-08-27T11:29:31.636Z,3.90
2022-08-27T11:32:49.521Z,3.72
2022-08-27T11:36:20.310Z,4.30
2022-08-27T11:39:36.090Z,4.22
2022-08-27T11:42:42.812Z,3.78
2022-08-27T11:45:57.189Z,4.35
2022-08-27T11:49:04.066Z,3.90
2022-08-27T11:52:09.667Z,4.40
2022-08-27T11:55:25.135Z,3.97
2022-08-27T11:58:33.176Z,3.67
2022-08-27T12:01:56.491Z,4.50
2022-08-27T12:05:26.302Z,3.70
2022-08-27T12:08:32.907Z,4.10
2022-08-27T12:11:44.345Z,5.20
2022-08-27T12:14:55.125Z,4.35
2022-08-27T12:18:08.690Z,4.15
2022-08-27T12:21:24.013Z,4.50
2022-08-27T12:24:44.177Z,4.97
2022-08-27T12:27:58.695Z,4.40
2022-08-27T12:31:05.249Z,4.70
2022-08-27T12:34:16.803Z,4.15
2022-08-27T12:37:28.971Z,4.38
2022-08-27T12:40:41.339Z,4.43
2022-08-27T12:43:44.756Z,4.55
2022-08-27T12:46:51.237Z,4.32
2022-08-27T12:49:58.305Z,4.20
2022-08-27T12:53:24.664Z,4.20
2022-08-27T12:56:54.588Z,4.93
2022-08-27T13:00:09.010Z,4.28
2022-08-27T13:03:24.310Z,4.45
2022-08-27T13:06:33.182Z,4.22
2022-08-27T13:09:39.930Z,4.22
2022-08-27T13:12:44.558Z,4.22
2022-08-27T13:15:52.366Z,3.78
2022-08-27T13:18:56.072Z,4.38
2022-08-27T13:22:01.273Z,4.32
2022-08-27T13:25:07.553Z,3.70
2022-08-27T13:28:13.660Z,4.60
2022-08-27T13:31:18.671Z,4.07
2022-08-27T13:34:25.641Z,4.68
2022-08-27T13:37:35.988Z,4.18
2022-08-27T13:40:54.734Z,4.47
2022-08-27T13:43:59.790Z,4.65
2022-08-27T13:47:06.215Z,4.05
2022-08-27T13:50:18.406Z,4.38
2022-08-27T13:53:43.101Z,4.18
2022-08-27T13:57:08.285Z,4.30
2022-08-27T14:00:17.571Z,5.03
2022-08-27T14:03:31.839Z,4.35
2022-08-27T14:06:41.318Z,4.20
2022-08-27T14:09:54.389Z,4.68
2022-08-27T14:13:02.050Z,4.70
2022-08-27T14:16:15.882Z,4.50
2022-08-27T14:19:36.153Z,4.32
2022-08-27T14:22:40.028Z,3.70
2022-08-27T14:25:43.425Z,4.55
2022-08-27T14:28:48.244Z,4.75
2022-08-27T14:31:52.310Z,4.68
2022-08-27T14:34:55.638Z,3.83
2022-08-27T14:38:01.105Z,4.43
2022-08-27T14:41:06.701Z,4.63
2022-08-27T14:44:11.610Z,4.22
2022-08-27T14:47:16.974Z,4.80
2022-08-27T14:50:20.544Z,4.47
2022-08-27T14:53:24.316Z,4.47
2022-08-27T14:56:28.020Z,4.30
2022-08-27T14:59:33.239Z,4.57
2022-08-27T15:02:39.527Z,4.60
2022-08-27T15:05:43.089Z,4.30
2022-08-27T15:08:46.737Z,4.50
2022-08-27T15:11:50.767Z,4.80
2022-08-27T15:14:56.145Z,4.03
2022-08-27T15:17:59.614Z,3.90
2022-08-27T15:21:03.039Z,4.00
2022-08-27T15:24:12.271Z,4.60
2022-08-27T15:27:15.660Z,4.80
2022-08-27T15:30:26.428Z,4.13
2022-08-27T15:33:29.755Z,4.28
2022-08-27T15:36:33.086Z,5.05
2022-08-27T15:39:36.477Z,4.03
2022-08-27T15:42:40.748Z,4.93
2022-08-27T15:45:45.669Z,4.53
2022-08-27T15:48:49.143Z,5.13
2022-08-27T15:51:52.945Z,4.63
2022-08-27T15:54:57.991Z,4.28
2022-08-27T15:58:01.789Z,8.35
2022-08-27T16:01:11.920Z,4.57
2022-08-27T16:04:17.486Z,5.63
2022-08-27T16:07:21.343Z,4.35
2022-08-27T16:10:24.791Z,4.28
2022-08-27T16:13:28.438Z,4.35
2022-08-27T16:16:33.982Z,4.28
2022-08-27T16:19:38.522Z,4.57
2022-08-27T16:22:42.078Z,4.25
2022-08-27T16:25:45.419Z,4.90
2022-08-27T16:28:48.734Z,4.45
2022-08-27T16:32:00.571Z,4.20
2022-08-27T16:35:04.683Z,5.47
2022-08-27T16:38:08.074Z,5.18
2022-08-27T16:41:11.791Z,4.85
2022-08-27T16:44:15.847Z,5.60
2022-08-27T16:47:20.572Z,6.18
2022-08-27T16:50:34.863Z,6.20
2022-08-27T16:53:41.136Z,6.70
2022-08-27T16:56:46.272Z,6.55
2022-08-27T16:59:49.806Z,6.72
2022-08-27T17:02:54.678Z,6.68
2022-08-27T17:05:58.867Z,7.53
2022-08-27T17:09:05.014Z,7.35
2022-08-27T17:12:09.473Z,7.80
2022-08-27T17:15:14.608Z,8.45
2022-08-27T17:18:21.080Z,7.90
2022-08-27T17:21:29.141Z,7.93
2022-08-27T17:24:33.199Z,7.57
2022-08-27T17:27:36.475Z,6.47
2022-08-27T17:30:40.280Z,6.53
2022-08-27T17:33:47.600Z,7.18
2022-08-27T17:36:51.712Z,7.05
2022-08-27T17:39:55.401Z,6.53
2022-08-27T17:42:58.915Z,6.88
2022-08-27T17:46:02.373Z,6.50
2022-08-27T17:49:07.132Z,6.18
2022-08-27T17:52:16.440Z,5.55
2022-08-27T17:55:19.869Z,5.63
2022-08-27T17:58:23.148Z,5.97
2022-08-27T18:01:29.564Z,6.22
2022-08-27T18:04:34.373Z,5.55
2022-08-27T18:07:40.098Z,6.00
2022-08-27T18:10:46.459Z,5.90
2022-08-27T18:13:53.807Z,5.70
2022-08-27T18:16:58.048Z,5.75
2022-08-27T18:20:03.938Z,5.63
2022-08-27T18:23:07.613Z,5.30
2022-08-27T18:26:15.275Z,6.10
2022-08-27T18:29:19.994Z,5.60
2022-08-27T18:32:23.382Z,5.72
2022-08-27T18:35:30.806Z,5.90
2022-08-27T18:38:34.275Z,5.35
2022-08-27T18:41:37.708Z,5.68
2022-08-27T18:44:45.816Z,6.45
2022-08-27T18:47:50.845Z,5.75
2022-08-27T18:50:58.857Z,5.50
2022-08-27T18:54:02.247Z,7.63
2022-08-27T18:57:05.641Z,6.03
2022-08-27T19:00:19.018Z,5.78
2022-08-27T19:03:25.139Z,7.00
2022-08-27T19:06:29.833Z,6.07
2022-08-27T19:09:33.274Z,8.30
2022-08-27T19:12:36.789Z,6.97
2022-08-27T19:15:44.184Z,7.25
2022-08-27T19:18:47.914Z,7.22
2022-08-27T19:21:53.442Z,6.50
2022-08-27T19:24:57.023Z,6.50
2022-08-27T19:28:00.402Z,7.20
2022-08-27T19:31:03.741Z,6.38
2022-08-27T19:34:09.117Z,7.20
2022-08-27T19:37:20.342Z,6.40
2022-08-27T19:40:23.983Z,5.75
2022-08-27T19:43:27.704Z,6.60
2022-08-27T19:46:32.968Z,5.50
2022-08-27T19:49:36.326Z,5.53
2022-08-27T19:52:41.192Z,6.38
2022-08-27T19:55:46.093Z,6.60
2022-08-27T19:58:50.516Z,6.20
2022-08-27T20:01:56.474Z,5.90
2022-08-27T20:05:17.059Z,5.50
2022-08-27T20:08:22.931Z,5.68
2022-08-27T20:11:26.745Z,6.05
2022-08-27T20:14:30.222Z,6.53
2022-08-27T20:17:34.246Z,6.15
2022-08-27T20:20:38.141Z,6.00
2022-08-27T20:23:44.134Z,6.07
2022-08-27T20:26:47.707Z,5.35
2022-08-27T20:29:51.093Z,5.70
2022-08-27T20:32:55.077Z,5.50
2022-08-27T20:36:01.550Z,6.10
2022-08-27T20:39:06.376Z,5.63
2022-08-27T20:42:11.030Z,6.47
2022-08-27T20:45:15.953Z,6.25
2022-08-27T20:48:19.283Z,6.43
2022-08-27T20:51:22.623Z,6.95
2022-08-27T20:54:27.427Z,5.97
2022-08-27T20:57:30.752Z,6.80
2022-08-27T21:00:34.617Z,6.63
2022-08-27T21:03:39.471Z,5.95
2022-08-27T21:06:42.831Z,6.90
2022-08-27T21:09:55.899Z,5.57
2022-08-27T21:13:04.501Z,6.05
2022-08-27T21:16:09.269Z,7.15
2022-08-27T21:19:13.460Z,7.18
2022-08-27T21:22:16.802Z,7.45
2022-08-27T21:25:24.653Z,9.18
2022-08-27T21:28:27.961Z,6.78
2022-08-27T21:31:31.649Z,7.90
2022-08-27T21:34:35.020Z,6.30
2022-08-27T21:37:38.440Z,5.95
2022-08-27T21:40:43.254Z,7.03
2022-08-27T21:43:46.710Z,7.40
2022-08-27T21:46:50.059Z,6.53
2022-08-27T21:49:53.429Z,6.40
2022-08-27T21:52:56.987Z,6.50
2022-08-27T21:56:01.750Z,5.82
2022-08-27T21:59:06.190Z,5.63
2022-08-27T22:02:23.226Z,5.82
2022-08-27T22:05:33.190Z,5.50
2022-08-27T22:08:36.572Z,6.13
2022-08-27T22:11:41.759Z,6.57
2022-08-27T22:14:48.014Z,5.97
2022-08-27T22:17:51.566Z,6.18
2022-08-27T22:20:55.553Z,5.95
2022-08-27T22:23:58.916Z,6.32
2022-08-27T22:27:03.649Z,6.00
2022-08-27T22:30:11.128Z,5.82
2022-08-27T22:33:14.945Z,5.50
2022-08-27T22:36:18.586Z,5.22
2022-08-27T22:39:21.885Z,5.82
2022-08-27T22:42:28.937Z,5.65
2022-08-27T22:45:34.000Z,5.57
2022-08-27T22:48:37.447Z,6.53
2022-08-27T22:51:40.845Z,5.53
2022-08-27T22:54:44.218Z,5.63
2022-08-27T22:57:49.755Z,5.32
2022-08-27T23:00:54.821Z,5.85
2022-08-27T23:03:58.219Z,5.05
2022-08-27T23:07:01.977Z,5.60
2022-08-27T23:10:06.936Z,5.60
2022-08-27T23:13:12.888Z,5.45
2022-08-27T23:16:16.899Z,5.28
2022-08-27T23:19:20.419Z,5.60
2022-08-27T23:22:23.976Z,5.65
2022-08-27T23:25:45.717Z,5.55
2022-08-27T23:28:50.471Z,5.38
2022-08-27T23:31:54.343Z,6.00
2022-08-27T23:34:58.097Z,5.80
2022-08-27T23:38:01.398Z,5.47
2022-08-27T23:41:05.835Z,5.82
2022-08-27T23:44:10.709Z,5.85
2022-08-27T23:47:14.087Z,5.40
2022-08-27T23:50:17.592Z,5.28
2022-08-27T23:53:21.045Z,6.05
2022-08-27T23:56:28.094Z,5.97
2022-08-27T23:59:35.339Z,5.47
